Time;durP1;ratioP1;P1;durP2;ratioP2;P2;SDS_P1;SDS_P2;PMS_P1;PMS_P2;Temp;Humidity;BMP_temperature;BMP_pressure;BME280_temperature;BME280_humidity;BME280_pressure;Samples;Min_cycle;Max_cycle;Signal;HPM_P1;HPM_P2
2021/11/30 00:00:58;;;;;;;20.42;9.98;;;1.70;94.10;;;;;;5020675;28;20225;-63
2021/11/30 00:03:24;;;;;;;18.63;9.60;;;1.70;94.00;;;;;;5021271;28;20199;-63
2021/11/30 00:05:50;;;;;;;16.80;8.73;;;1.70;94.00;;;;;;5021365;28;20144;-64
2021/11/30 00:08:16;;;;;;;22.27;9.80;;;1.70;94.00;;;;;;5021276;28;20137;-64
2021/11/30 00:10:48;;;;;;;20.33;9.95;;;1.80;94.00;;;;;;5019886;28;20022;-64
2021/11/30 00:13:19;;;;;;;17.27;9.13;;;1.80;94.00;;;;;;5020066;28;20050;-64
2021/11/30 00:15:46;;;;;;;16.42;8.80;;;1.80;94.00;;;;;;5019714;28;20341;-64
2021/11/30 00:18:12;;;;;;;;;;;1.80;94.00;;;;;;5022695;28;20133;-63
2021/11/30 00:20:39;;;;;;;18.45;9.50;;;1.70;93.90;;;;;;5024501;28;19913;-64
2021/11/30 00:23:05;;;;;;;16.98;8.48;;;1.70;94.00;;;;;;5023688;28;20018;-64
2021/11/30 00:25:31;;;;;;;16.40;8.90;;;1.80;94.10;;;;;;5024699;28;20089;-63
2021/11/30 00:27:57;;;;;;;22.47;9.67;;;1.80;94.00;;;;;;5024858;28;20022;-64
2021/11/30 00:30:23;;;;;;;17.92;8.90;;;1.80;94.00;;;;;;5024328;28;20229;-64
2021/11/30 00:32:49;;;;;;;17.70;8.55;;;1.70;94.10;;;;;;5024849;28;20025;-64
2021/11/30 00:35:15;;;;;;;20.00;10.00;;;1.80;94.10;;;;;;5023508;28;20211;-64
2021/11/30 00:37:41;;;;;;;16.60;9.15;;;1.80;94.20;;;;;;5024610;28;20025;-64
2021/11/30 00:40:08;;;;;;;15.97;7.73;;;1.80;94.30;;;;;;5023340;28;20033;-64
2021/11/30 00:42:35;;;;;;;;;;;1.80;94.30;;;;;;5024654;28;20026;-64
2021/11/30 00:45:04;;;;;;;17.63;8.77;;;1.80;94.30;;;;;;5023891;28;20084;-63
2021/11/30 00:47:30;;;;;;;17.38;9.00;;;1.80;94.40;;;;;;5024519;28;20093;-64
2021/11/30 00:50:01;;;;;;;19.55;9.13;;;1.80;94.30;;;;;;5024317;28;20033;-64
2021/11/30 00:52:27;;;;;;;17.77;9.65;;;1.80;94.40;;;;;;5024008;28;20029;-63
2021/11/30 00:54:53;;;;;;;20.20;10.43;;;1.80;94.50;;;;;;5024134;28;20077;-64
2021/11/30 00:57:19;;;;;;;16.90;8.68;;;1.80;94.50;;;;;;5022995;28;20025;-64
2021/11/30 00:59:45;;;;;;;22.23;10.70;;;1.80;94.70;;;;;;5024167;28;20064;-64
2021/11/30 01:02:11;;;;;;;20.45;9.82;;;1.80;94.80;;;;;;5023755;28;20041;-64
2021/11/30 01:04:36;;;;;;;19.52;10.85;;;1.80;94.80;;;;;;5023851;28;20077;-63
2021/11/30 01:07:02;;;;;;;20.67;9.90;;;1.80;94.90;;;;;;5024112;28;20359;-64
2021/11/30 01:09:28;;;;;;;19.77;10.10;;;1.80;95.00;;;;;;5024061;28;20080;-64
2021/11/30 01:11:54;;;;;;;18.08;10.27;;;1.80;95.10;;;;;;5023435;28;20032;-64
2021/11/30 01:14:21;;;;;;;23.27;9.63;;;1.80;95.10;;;;;;5023787;28;20200;-63
2021/11/30 01:16:47;;;;;;;16.80;9.25;;;1.80;95.00;;;;;;5022279;28;20026;-63
2021/11/30 01:19:13;;;;;;;16.95;9.38;;;1.80;95.10;;;;;;5023683;28;20088;-64
2021/11/30 01:21:38;;;;;;;19.87;9.90;;;1.90;95.00;;;;;;5023474;28;20095;-63
2021/11/30 01:24:05;;;;;;;16.05;8.70;;;1.90;95.00;;;;;;5023755;28;20080;-63
2021/11/30 01:26:31;;;;;;;22.27;9.48;;;1.90;94.90;;;;;;5023542;28;20125;-63
2021/11/30 01:28:56;;;;;;;20.67;10.60;;;1.90;94.70;;;;;;5022248;28;20026;-64
2021/11/30 01:31:22;;;;;;;21.20;9.63;;;1.90;95.00;;;;;;5023165;28;20033;-63
2021/11/30 01:33:48;;;;;;;17.65;8.93;;;1.90;94.80;;;;;;5023549;28;20033;-63
2021/11/30 01:36:14;;;;;;;17.40;9.38;;;1.90;94.80;;;;;;5023550;28;20030;-63
2021/11/30 01:38:40;;;;;;;22.45;10.02;;;1.90;94.70;;;;;;5023551;28;20094;-63
2021/11/30 01:41:07;;;;;;;22.03;10.93;;;1.90;94.70;;;;;;5021941;28;20053;-64
2021/11/30 01:43:40;;;;;;;;;;;1.90;94.70;;;;;;5022688;28;20022;-63
2021/11/30 01:51:16;;;;;;;18.02;9.60;;;2.00;94.80;;;;;;5021975;28;20256;-63
2021/11/30 01:53:42;;;;;;;19.23;9.52;;;2.00;94.70;;;;;;5021927;28;20313;-64
2021/11/30 01:56:08;;;;;;;18.30;10.00;;;2.00;94.50;;;;;;5023149;28;20064;-64
2021/11/30 01:58:34;;;;;;;17.83;9.52;;;2.00;94.60;;;;;;5023055;28;20081;-63
2021/11/30 02:01:00;;;;;;;18.88;9.80;;;2.00;94.60;;;;;;5021514;28;20042;-64
2021/11/30 02:03:25;;;;;;;18.58;9.27;;;2.10;94.60;;;;;;5022944;28;20086;-64
2021/11/30 02:05:51;;;;;;;18.50;8.95;;;2.00;94.60;;;;;;5021725;28;20021;-64
2021/11/30 02:08:17;;;;;;;18.27;10.20;;;2.10;94.70;;;;;;5022948;28;20070;-63
2021/11/30 02:10:43;;;;;;;16.77;8.93;;;2.00;94.70;;;;;;5022513;28;20100;-63
2021/11/30 02:13:09;;;;;;;19.27;9.27;;;2.00;94.90;;;;;;5022859;28;20013;-64
2021/11/30 02:15:47;;;;;;;19.17;9.40;;;2.00;95.00;;;;;;5022547;28;20273;-64
2021/11/30 02:18:14;;;;;;;18.17;8.63;;;2.00;95.00;;;;;;5022786;28;20022;-64
2021/11/30 02:20:42;;;;;;;16.67;8.73;;;2.00;95.00;;;;;;5022360;28;20105;-64
2021/11/30 02:23:15;;;;;;;15.57;8.25;;;2.00;95.10;;;;;;5021409;28;20025;-64
2021/11/30 02:25:41;;;;;;;18.15;9.15;;;2.00;95.30;;;;;;5022648;28;20021;-63
2021/11/30 02:28:07;;;;;;;15.68;8.40;;;2.00;95.30;;;;;;5021480;28;20022;-64
2021/11/30 02:30:33;;;;;;;17.70;9.13;;;2.00;95.10;;;;;;5022145;28;20022;-64
2021/11/30 02:32:59;;;;;;;19.23;9.43;;;2.00;95.20;;;;;;5021449;28;20149;-64
2021/11/30 02:35:24;;;;;;;14.88;8.30;;;2.00;95.40;;;;;;5022372;28;20068;-63
2021/11/30 02:37:51;;;;;;;17.60;7.72;;;2.00;95.30;;;;;;5022433;28;20085;-64
2021/11/30 02:40:17;;;;;;;16.25;8.05;;;2.00;95.30;;;;;;5021803;28;20026;-63
2021/11/30 02:42:42;;;;;;;13.88;7.45;;;2.00;95.10;;;;;;5020874;28;20241;-64
2021/11/30 02:45:08;;;;;;;14.63;7.55;;;2.10;95.00;;;;;;5021806;28;20089;-64
2021/11/30 02:47:34;;;;;;;12.87;7.47;;;2.10;95.00;;;;;;5022217;28;20049;-64
2021/11/30 02:50:00;;;;;;;12.48;7.63;;;2.10;94.90;;;;;;5022205;28;20049;-64
2021/11/30 02:52:28;;;;;;;11.70;7.22;;;2.10;94.70;;;;;;5021915;28;20216;-64
2021/11/30 02:54:54;;;;;;;12.70;6.47;;;2.10;94.60;;;;;;5022003;28;20021;-63
2021/11/30 02:57:20;;;;;;;13.73;6.93;;;2.10;94.70;;;;;;5020947;28;20033;-64
2021/11/30 02:59:49;;;;;;;10.93;6.43;;;2.20;94.40;;;;;;5022065;28;20025;-64
2021/11/30 03:02:28;;;;;;;11.52;5.95;;;2.20;94.50;;;;;;5021405;28;20030;-64
2021/11/30 03:04:56;;;;;;;9.18;5.70;;;2.20;94.60;;;;;;5021904;28;20395;-64
2021/11/30 03:07:28;;;;;;;11.25;5.82;;;2.20;94.60;;;;;;5021917;28;20081;-64
2021/11/30 03:09:54;;;;;;;11.90;6.00;;;2.10;94.80;;;;;;5021863;28;20022;-63
2021/11/30 03:12:21;;;;;;;9.25;5.82;;;2.10;94.90;;;;;;5020322;28;20025;-63
2021/11/30 03:14:47;;;;;;;10.95;6.20;;;2.10;95.10;;;;;;5021799;28;20026;-63
2021/11/30 03:17:13;;;;;;;7.67;5.57;;;2.00;95.20;;;;;;5020599;28;20044;-63
2021/11/30 03:19:38;;;;;;;9.35;5.47;;;2.00;95.30;;;;;;5020875;28;20348;-64
2021/11/30 03:22:05;;;;;;;12.57;6.88;;;1.90;95.60;;;;;;5021601;28;20037;-64
2021/11/30 03:24:31;;;;;;;9.30;5.95;;;2.00;95.40;;;;;;5020551;28;20093;-63
2021/11/30 03:26:56;;;;;;;13.57;6.10;;;2.00;95.30;;;;;;5021667;28;20037;-64
2021/11/30 03:29:22;;;;;;;13.32;6.32;;;1.90;95.60;;;;;;5021671;28;20105;-63
2021/11/30 03:31:52;;;;;;;11.60;5.97;;;1.90;95.60;;;;;;5019667;28;20032;-63
2021/11/30 03:34:21;;;;;;;9.60;5.93;;;1.80;95.60;;;;;;5021549;28;20052;-63
2021/11/30 03:37:06;;;;;;;9.65;5.07;;;1.80;95.80;;;;;;5654288;23;20110;-64
2021/11/30 03:39:33;;;;;;;7.60;4.85;;;1.80;95.80;;;;;;5001540;28;20043;-63
2021/11/30 03:41:59;;;;;;;11.30;5.68;;;1.80;95.80;;;;;;5003065;28;20035;-63
2021/11/30 03:44:26;;;;;;;8.65;4.93;;;1.80;95.80;;;;;;5004218;28;20228;-63
2021/11/30 03:46:52;;;;;;;7.40;4.25;;;1.80;95.50;;;;;;4985252;28;20026;-62
2021/11/30 03:51:43;;;;;;;6.55;4.35;;;1.90;95.40;;;;;;5057828;23;20115;-70
2021/11/30 03:54:09;;;;;;;9.20;5.40;;;1.90;95.30;;;;;;5045242;28;20084;-70
2021/11/30 03:56:35;;;;;;;9.85;5.07;;;1.90;95.10;;;;;;5046335;28;20080;-69
2021/11/30 03:59:02;;;;;;;7.60;5.10;;;1.90;95.20;;;;;;5045045;28;20089;-70
2021/11/30 04:01:27;;;;;;;11.93;5.80;;;1.90;94.80;;;;;;5027458;28;20029;-69
2021/11/30 04:03:55;;;;;;;8.07;4.85;;;1.90;94.40;;;;;;5027717;28;20231;-69
2021/11/30 04:06:21;;;;;;;9.73;4.78;;;2.00;94.60;;;;;;5028517;28;20021;-69
2021/11/30 04:08:48;;;;;;;5.72;4.18;;;2.00;94.20;;;;;;5028436;28;20021;-69
2021/11/30 04:11:14;;;;;;;6.80;4.65;;;2.00;94.20;;;;;;5028700;28;20030;-69
2021/11/30 04:13:39;;;;;;;8.88;5.10;;;2.00;94.20;;;;;;5028777;28;20324;-69
2021/11/30 04:16:05;;;;;;;7.80;5.25;;;2.00;94.00;;;;;;5025852;28;20320;-69
2021/11/30 04:18:31;;;;;;;8.90;4.93;;;2.00;93.80;;;;;;5025402;28;20033;-69
2021/11/30 04:20:57;;;;;;;7.68;4.70;;;2.00;93.70;;;;;;5024729;28;20249;-69
2021/11/30 04:23:25;;;;;;;9.33;4.47;;;2.00;93.80;;;;;;5008938;28;20076;-69
2021/11/30 04:25:51;;;;;;;9.25;4.60;;;2.00;93.60;;;;;;5026205;28;20259;-69
2021/11/30 04:28:17;;;;;;;8.82;5.18;;;2.00;93.30;;;;;;5025819;28;20018;-69
2021/11/30 04:30:42;;;;;;;8.48;4.90;;;1.90;93.40;;;;;;5025948;28;20312;-69
2021/11/30 04:33:08;;;;;;;6.15;3.80;;;2.00;93.00;;;;;;5025893;28;20033;-68
2021/11/30 04:35:34;;;;;;;9.30;4.30;;;2.00;93.10;;;;;;5025710;28;20085;-68
2021/11/30 04:38:00;;;;;;;10.68;5.28;;;2.10;93.00;;;;;;5025363;28;20018;-68
2021/11/30 04:40:26;;;;;;;8.38;4.65;;;2.10;92.80;;;;;;5025682;28;20024;-69
2021/11/30 04:42:51;;;;;;;9.23;5.20;;;2.10;92.90;;;;;;5025736;28;20056;-69
2021/11/30 04:47:47;;;;;;;7.45;5.18;;;2.10;92.60;;;;;;5025369;28;20018;-69
2021/11/30 04:50:21;;;;;;;7.80;5.03;;;2.10;92.50;;;;;;5025238;28;20033;-70
2021/11/30 04:52:49;;;;;;;9.63;4.70;;;2.10;92.30;;;;;;5024685;28;20034;-69
2021/11/30 04:55:21;;;;;;;9.65;5.97;;;2.10;92.20;;;;;;5024432;28;20029;-69
2021/11/30 04:57:48;;;;;;;10.48;5.20;;;2.10;92.20;;;;;;5025145;28;20029;-69
2021/11/30 05:00:15;;;;;;;9.07;4.75;;;2.10;92.00;;;;;;5008258;28;20032;-69
2021/11/30 05:02:40;;;;;;;9.23;4.60;;;2.10;92.00;;;;;;5024987;28;20101;-69
2021/11/30 05:05:07;;;;;;;11.60;4.97;;;2.10;92.20;;;;;;5024901;28;20475;-68
2021/11/30 05:07:33;;;;;;;8.13;4.72;;;2.10;92.20;;;;;;5025133;28;20022;-69
2021/11/30 05:09:58;;;;;;;13.07;4.53;;;2.10;92.00;;;;;;5025811;28;20032;-68
2021/11/30 05:12:25;;;;;;;7.57;4.45;;;2.10;91.50;;;;;;5025485;28;20274;-68
2021/11/30 05:14:50;;;;;;;7.32;3.97;;;2.20;91.40;;;;;;5023805;28;20268;-69
2021/11/30 05:17:16;;;;;;;17.10;5.75;;;2.20;91.40;;;;;;5024403;28;20320;-69
2021/11/30 05:19:42;;;;;;;8.68;3.90;;;2.10;91.30;;;;;;5023606;28;20036;-68
2021/11/30 05:22:11;;;;;;;8.68;4.53;;;2.10;90.80;;;;;;5004806;28;20034;-68
2021/11/30 05:24:37;;;;;;;9.73;4.05;;;2.10;91.10;;;;;;5005544;28;20026;-68
2021/11/30 05:27:04;;;;;;;12.82;4.78;;;2.10;91.10;;;;;;5020424;28;20033;-68
2021/11/30 05:29:29;;;;;;;;;;;2.20;90.50;;;;;;5021661;28;20026;-69
2021/11/30 05:31:55;;;;;;;7.05;3.53;;;2.10;90.80;;;;;;5004079;28;19921;-68
2021/11/30 05:34:21;;;;;;;9.38;4.05;;;2.10;90.80;;;;;;5027865;28;20021;-69
2021/11/30 05:36:47;;;;;;;5.85;3.63;;;2.20;90.40;;;;;;5043823;28;20062;-68
2021/11/30 05:39:13;;;;;;;7.03;3.35;;;2.10;90.60;;;;;;5043366;28;20164;-68
2021/11/30 05:41:38;;;;;;;6.57;3.17;;;2.20;90.30;;;;;;5026478;28;20021;-69
2021/11/30 05:44:05;;;;;;;6.82;4.20;;;2.20;90.40;;;;;;5044603;28;20013;-68
2021/11/30 05:46:35;;;;;;;7.65;4.05;;;2.20;90.30;;;;;;5043296;28;20025;-69
2021/11/30 05:49:01;;;;;;;7.60;3.70;;;2.20;90.60;;;;;;5044121;28;20022;-69
2021/11/30 05:51:27;;;;;;;9.15;3.58;;;2.20;90.80;;;;;;5010824;28;20033;-69
2021/11/30 05:53:53;;;;;;;4.80;3.28;;;2.20;91.00;;;;;;5023624;28;20036;-68
2021/11/30 05:56:18;;;;;;;5.28;3.47;;;2.20;91.00;;;;;;5024390;28;20053;-69
2021/11/30 05:58:45;;;;;;;9.82;4.10;;;2.20;91.00;;;;;;5006810;28;20093;-69
2021/11/30 06:01:55;;;;;;;;;;;2.10;91.00;;;;;;5024418;28;20045;-69
2021/11/30 06:04:01;;;;;;;5.70;3.67;;;2.20;91.10;;;;;;5020384;28;19905;-68
2021/11/30 06:06:32;;;;;;;5.63;2.87;;;2.20;90.90;;;;;;5023817;28;20319;-68
2021/11/30 06:08:59;;;;;;;5.90;3.63;;;2.20;91.20;;;;;;5006460;28;20033;-68
2021/11/30 06:11:25;;;;;;;7.03;4.00;;;2.10;91.40;;;;;;5023825;28;20255;-68
2021/11/30 06:13:51;;;;;;;7.45;3.90;;;2.10;91.70;;;;;;5023338;28;20046;-68
2021/11/30 06:16:17;;;;;;;8.53;4.03;;;2.10;92.00;;;;;;5021972;28;20029;-68
2021/11/30 06:18:43;;;;;;;5.00;3.50;;;2.10;92.30;;;;;;5021918;28;20017;-68
2021/11/30 06:21:11;;;;;;;11.00;4.13;;;2.10;92.60;;;;;;5022529;28;20256;-69
2021/11/30 06:23:39;;;;;;;4.38;3.13;;;2.00;92.70;;;;;;5006014;28;20310;-68
2021/11/30 06:26:06;;;;;;;5.63;3.50;;;2.10;93.00;;;;;;5013826;28;20018;-68
2021/11/30 06:28:32;;;;;;;6.35;3.78;;;1.90;93.20;;;;;;5023165;28;20045;-68
2021/11/30 06:30:58;;;;;;;6.25;3.50;;;1.90;93.30;;;;;;5038866;28;20125;-68
2021/11/30 06:33:24;;;;;;;7.47;4.10;;;2.00;93.50;;;;;;5023428;28;20030;-68
2021/11/30 06:35:50;;;;;;;5.32;3.42;;;1.90;93.70;;;;;;5022982;28;20204;-69
2021/11/30 06:38:16;;;;;;;6.30;3.17;;;1.90;93.70;;;;;;5021952;28;20022;-68
2021/11/30 06:40:41;;;;;;;6.13;3.30;;;1.90;93.80;;;;;;5023216;28;20060;-68
2021/11/30 06:43:07;;;;;;;5.88;2.92;;;1.90;94.30;;;;;;5023091;28;20028;-68
2021/11/30 06:45:33;;;;;;;6.10;3.38;;;1.80;94.20;;;;;;5021948;28;20017;-68
2021/11/30 06:47:59;;;;;;;5.50;3.33;;;1.80;94.20;;;;;;5021310;28;20013;-69
2021/11/30 06:50:25;;;;;;;6.05;3.65;;;1.80;94.40;;;;;;5022294;28;20022;-69
2021/11/30 06:52:51;;;;;;;6.45;2.70;;;1.80;94.70;;;;;;5022884;28;20328;-69
2021/11/30 06:55:17;;;;;;;6.72;3.15;;;1.70;94.80;;;;;;5022880;28;20017;-69
2021/11/30 06:57:43;;;;;;;7.50;2.97;;;1.70;94.90;;;;;;5021397;28;20093;-69
2021/11/30 07:00:11;;;;;;;9.57;3.40;;;1.70;94.80;;;;;;5022747;28;20026;-69
2021/11/30 07:02:37;;;;;;;6.25;3.65;;;1.80;95.00;;;;;;5040989;28;20025;-69
2021/11/30 07:05:16;;;;;;;6.80;3.42;;;1.70;95.00;;;;;;5022670;28;20088;-69
2021/11/30 07:07:52;;;;;;;5.97;2.65;;;1.70;94.90;;;;;;5021443;28;20022;-70
2021/11/30 07:10:37;;;;;;;6.05;2.42;;;1.70;95.10;;;;;;5022972;28;20036;-70
2021/11/30 07:15:38;;;;;;;4.10;2.65;;;1.70;95.30;;;;;;5022293;28;20026;-70
2021/11/30 07:18:04;;;;;;;6.43;2.95;;;1.70;95.30;;;;;;5022658;28;20032;-70
2021/11/30 07:20:30;;;;;;;6.28;3.17;;;1.70;95.50;;;;;;5021341;28;20256;-69
2021/11/30 07:22:58;;;;;;;6.07;3.10;;;1.70;95.30;;;;;;5022877;28;20034;-70
2021/11/30 07:25:26;;;;;;;8.18;3.53;;;1.70;95.50;;;;;;5021946;28;20032;-69
2021/11/30 07:27:53;;;;;;;7.75;2.60;;;1.70;95.40;;;;;;5022357;28;20030;-70
2021/11/30 07:30:20;;;;;;;3.20;2.13;;;1.70;95.40;;;;;;5022876;28;20030;-69
2021/11/30 07:32:46;;;;;;;3.45;2.20;;;1.70;95.50;;;;;;5023031;28;20089;-69
2021/11/30 07:35:11;;;;;;;4.10;2.40;;;1.70;95.50;;;;;;5022500;28;20072;-69
2021/11/30 07:37:37;;;;;;;3.60;2.07;;;1.70;95.50;;;;;;5022570;28;20044;-69
2021/11/30 07:40:04;;;;;;;3.55;2.03;;;1.70;95.60;;;;;;5021969;28;20064;-69
2021/11/30 07:42:32;;;;;;;5.78;2.42;;;1.70;95.50;;;;;;5022295;28;20022;-69
2021/11/30 07:44:58;;;;;;;2.50;1.70;;;1.70;95.50;;;;;;5023089;28;20212;-68
2021/11/30 07:47:24;;;;;;;5.67;2.17;;;1.70;95.70;;;;;;5005160;28;20013;-68
2021/11/30 07:49:50;;;;;;;4.93;1.80;;;1.70;95.60;;;;;;5021326;28;20033;-67
2021/11/30 07:52:16;;;;;;;3.50;2.17;;;1.70;95.50;;;;;;5022330;28;20022;-68
2021/11/30 07:54:42;;;;;;;3.28;2.05;;;1.70;95.40;;;;;;5021510;28;20032;-68
2021/11/30 07:57:08;;;;;;;8.35;2.35;;;1.60;95.40;;;;;;5022131;28;20048;-67
2021/11/30 07:59:36;;;;;;;7.55;2.78;;;1.60;95.50;;;;;;5021255;28;20382;-68
2021/11/30 08:02:02;;;;;;;4.60;2.30;;;1.50;95.70;;;;;;5022379;28;20021;-68
2021/11/30 08:04:28;;;;;;;4.13;2.17;;;1.60;95.60;;;;;;5022361;28;20018;-68
2021/11/30 08:06:54;;;;;;;6.15;2.20;;;1.50;95.70;;;;;;5021836;28;20060;-67
2021/11/30 08:09:19;;;;;;;3.47;2.50;;;1.60;95.70;;;;;;5022349;28;20021;-68
2021/11/30 08:11:45;;;;;;;2.88;1.95;;;1.50;95.70;;;;;;5022264;28;20033;-68
2021/11/30 08:14:14;;;;;;;5.93;1.88;;;1.50;95.60;;;;;;5022384;28;20034;-68
2021/11/30 08:16:40;;;;;;;4.78;1.75;;;1.50;95.70;;;;;;5022351;28;20033;-68
2021/11/30 08:19:06;;;;;;;5.13;2.17;;;1.60;95.60;;;;;;5021991;28;20029;-67
2021/11/30 08:21:32;;;;;;;3.30;1.90;;;1.60;95.50;;;;;;5020629;28;20053;-68
2021/11/30 08:23:58;;;;;;;4.35;2.13;;;1.60;95.30;;;;;;5021786;28;20501;-68
2021/11/30 08:26:24;;;;;;;3.67;2.08;;;1.60;95.30;;;;;;5025231;28;20041;-68
2021/11/30 08:28:50;;;;;;;5.38;1.95;;;1.60;95.50;;;;;;5021516;28;20033;-68
2021/11/30 08:31:15;;;;;;;1.60;1.43;;;1.60;95.40;;;;;;5020620;28;20052;-69
2021/11/30 08:33:41;;;;;;;3.80;1.90;;;1.60;95.40;;;;;;5022113;28;20022;-69
2021/11/30 08:36:07;;;;;;;1.95;1.42;;;1.50;95.60;;;;;;5020819;28;20089;-70
2021/11/30 08:38:33;;;;;;;3.55;1.40;;;1.50;95.40;;;;;;5022904;28;20041;-71
2021/11/30 08:40:59;;;;;;;1.87;1.40;;;1.50;95.60;;;;;;5025633;28;20022;-67
2021/11/30 08:43:25;;;;;;;3.80;1.65;;;1.60;97.40;;;;;;5025709;28;20018;-67
2021/11/30 08:45:52;;;;;;;4.30;1.45;;;1.90;96.80;;;;;;5025326;28;20073;-67
2021/11/30 08:48:18;;;;;;;3.25;1.45;;;1.90;95.90;;;;;;5025343;28;20013;-70
2021/11/30 08:50:44;;;;;;;2.85;1.45;;;1.80;95.30;;;;;;5015499;28;20053;-70
2021/11/30 08:53:10;;;;;;;2.53;1.70;;;1.70;95.30;;;;;;5021017;28;20033;-70
2021/11/30 08:55:36;;;;;;;2.45;1.40;;;1.70;95.60;;;;;;5021052;28;20034;-70
2021/11/30 08:58:02;;;;;;;2.50;1.60;;;1.70;95.60;;;;;;5005367;28;20018;-69
2021/11/30 09:00:28;;;;;;;2.13;1.45;;;1.60;95.50;;;;;;5005499;28;20085;-70
2021/11/30 09:02:55;;;;;;;2.95;1.63;;;1.60;95.70;;;;;;5005523;28;20032;-70
2021/11/30 09:05:21;;;;;;;1.58;1.05;;;1.60;95.70;;;;;;5020534;28;20049;-70
2021/11/30 09:07:48;;;;;;;2.05;1.60;;;1.50;95.60;;;;;;5005000;28;20022;-70
2021/11/30 09:10:14;;;;;;;2.60;1.35;;;1.50;95.70;;;;;;5005699;28;20030;-70
2021/11/30 09:12:40;;;;;;;2.80;2.10;;;1.50;95.80;;;;;;5020405;28;20056;-70
2021/11/30 09:15:07;;;;;;;3.58;1.40;;;1.50;95.80;;;;;;5023170;28;20219;-70
2021/11/30 09:17:36;;;;;;;2.47;1.70;;;1.60;95.80;;;;;;5023549;28;20026;-70
2021/11/30 09:20:04;;;;;;;2.65;1.70;;;1.60;95.70;;;;;;5023658;28;20254;-70
2021/11/30 09:22:30;;;;;;;2.95;1.45;;;1.50;95.60;;;;;;5022242;28;20189;-70
2021/11/30 09:24:57;;;;;;;3.08;1.35;;;1.50;95.80;;;;;;5023702;28;20050;-70
2021/11/30 09:27:25;;;;;;;2.67;1.52;;;1.60;95.50;;;;;;5024267;28;20338;-69
2021/11/30 09:29:53;;;;;;;2.38;1.52;;;1.60;95.30;;;;;;5023511;28;20076;-71
2021/11/30 09:32:19;;;;;;;2.47;1.50;;;1.60;95.20;;;;;;5023402;28;20049;-71
2021/11/30 09:34:44;;;;;;;1.92;1.33;;;1.60;95.20;;;;;;5024619;28;20022;-71
2021/11/30 09:37:11;;;;;;;2.22;1.17;;;1.60;95.30;;;;;;5023949;28;20312;-70
2021/11/30 09:39:37;;;;;;;2.33;1.27;;;1.50;95.50;;;;;;5024248;28;20029;-70
2021/11/30 09:42:04;;;;;;;1.85;1.50;;;1.60;95.30;;;;;;5022932;28;20080;-71
2021/11/30 09:44:33;;;;;;;4.53;1.40;;;1.60;95.60;;;;;;5023309;28;20026;-70
2021/11/30 09:47:00;;;;;;;1.15;0.98;;;1.60;95.30;;;;;;5023103;28;20025;-71
2021/11/30 09:49:27;;;;;;;2.83;1.42;;;1.60;95.20;;;;;;5022963;28;20021;-71
2021/11/30 09:51:53;;;;;;;4.00;1.52;;;1.60;95.10;;;;;;5030179;23;20061;-67
2021/11/30 09:54:19;;;;;;;3.00;1.27;;;1.60;95.30;;;;;;5004129;28;20209;-67
2021/11/30 09:56:45;;;;;;;3.22;1.58;;;1.70;95.30;;;;;;5004192;28;20018;-66
2021/11/30 09:59:11;;;;;;;3.67;1.63;;;1.70;94.90;;;;;;5003755;28;20074;-67
2021/11/30 10:01:37;;;;;;;1.95;1.00;;;1.80;95.00;;;;;;5004219;28;20018;-66
2021/11/30 10:04:03;;;;;;;1.48;1.30;;;1.80;94.80;;;;;;5004300;28;20213;-67
2021/11/30 10:06:30;;;;;;;4.63;1.30;;;1.80;94.50;;;;;;5003670;28;20073;-67
2021/11/30 10:08:56;;;;;;;;;;;1.80;94.50;;;;;;4986805;28;20038;-67
2021/11/30 10:11:38;;;;;;;1.88;1.10;;;1.80;94.90;;;;;;5002573;28;19906;-66
2021/11/30 10:14:23;;;;;;;2.38;1.00;;;1.80;94.90;;;;;;5002724;28;20041;-67
2021/11/30 10:17:20;;;;;;;2.25;1.10;;;1.80;94.70;;;;;;5002958;28;20046;-67
2021/11/30 10:20:16;;;;;;;1.80;0.98;;;1.80;94.80;;;;;;5004052;28;20030;-67
2021/11/30 10:22:53;;;;;;;1.40;1.10;;;1.80;94.80;;;;;;5003510;28;20049;-67
2021/11/30 10:25:25;;;;;;;1.10;0.85;;;1.80;95.10;;;;;;5002892;28;20024;-67
2021/11/30 10:28:00;;;;;;;2.10;0.90;;;1.80;95.20;;;;;;5002503;28;20022;-67
2021/11/30 10:30:32;;;;;;;1.88;1.00;;;1.80;95.40;;;;;;5004007;28;20026;-67
2021/11/30 10:33:06;;;;;;;1.52;0.98;;;1.80;95.30;;;;;;5003708;28;20121;-68
2021/11/30 10:35:32;;;;;;;1.80;1.20;;;1.70;95.30;;;;;;5003612;28;20081;-67
2021/11/30 10:37:59;;;;;;;4.13;2.03;;;1.70;95.30;;;;;;5002345;28;20034;-67
2021/11/30 10:40:27;;;;;;;6.28;1.60;;;1.70;95.30;;;;;;5002285;28;20068;-67
2021/11/30 10:43:05;;;;;;;1.58;1.05;;;1.70;95.40;;;;;;5003595;28;20031;-67
2021/11/30 10:45:50;;;;;;;1.77;1.10;;;1.70;95.50;;;;;;5003420;28;20026;-67
2021/11/30 10:48:20;;;;;;;1.40;1.10;;;1.70;95.50;;;;;;5003425;28;20026;-67
2021/11/30 10:50:50;;;;;;;1.00;0.98;;;1.70;95.70;;;;;;5003063;28;20030;-68
2021/11/30 10:53:30;;;;;;;3.35;1.10;;;1.70;95.60;;;;;;5003452;28;20347;-68
2021/11/30 10:56:02;;;;;;;1.75;0.93;;;1.80;95.60;;;;;;5003688;28;20018;-68
2021/11/30 10:58:30;;;;;;;1.10;0.80;;;1.80;95.40;;;;;;5003099;28;20030;-67
2021/11/30 11:00:57;;;;;;;0.88;0.55;;;1.90;95.40;;;;;;5002915;28;20097;-67
2021/11/30 11:03:24;;;;;;;1.23;0.80;;;1.80;95.40;;;;;;5003217;28;20324;-67
2021/11/30 11:08:44;;;;;;;0.85;0.70;;;1.80;95.50;;;;;;5002933;28;20026;-67
2021/11/30 11:11:14;;;;;;;0.70;0.70;;;1.80;95.50;;;;;;5003192;28;20053;-68
2021/11/30 11:13:42;;;;;;;0.93;0.73;;;1.80;95.60;;;;;;5003118;28;20045;-67
2021/11/30 11:16:29;;;;;;;0.90;0.70;;;1.80;95.70;;;;;;5003564;28;20053;-67
2021/11/30 11:18:57;;;;;;;0.87;0.77;;;1.90;95.60;;;;;;5002537;28;20086;-68
2021/11/30 11:21:33;;;;;;;0.82;0.57;;;1.90;95.60;;;;;;5003075;28;20026;-68
2021/11/30 11:24:19;;;;;;;0.50;0.50;;;1.80;95.60;;;;;;5003712;28;20030;-68
2021/11/30 11:26:58;;;;;;;0.65;0.65;;;1.90;95.50;;;;;;5004042;28;20220;-67
2021/11/30 11:29:26;;;;;;;0.75;0.50;;;1.90;95.50;;;;;;5002774;28;20174;-67
2021/11/30 11:32:02;;;;;;;0.70;0.70;;;1.90;95.50;;;;;;5003602;28;20030;-67
2021/11/30 11:34:33;;;;;;;0.95;0.50;;;1.90;95.70;;;;;;5001771;28;20031;-67
2021/11/30 11:37:01;;;;;;;0.70;0.50;;;1.80;95.70;;;;;;5002947;28;20022;-67
2021/11/30 11:39:28;;;;;;;0.57;0.57;;;1.80;95.70;;;;;;5003788;28;20028;-68
2021/11/30 11:42:04;;;;;;;1.00;0.60;;;1.90;95.70;;;;;;5003478;28;20050;-68
2021/11/30 11:44:30;;;;;;;0.90;0.52;;;1.90;95.70;;;;;;5004004;28;20026;-68
2021/11/30 11:47:20;;;;;;;1.27;0.50;;;2.00;95.40;;;;;;5003390;28;20108;-68
2021/11/30 11:49:49;;;;;;;0.90;0.70;;;2.00;95.20;;;;;;5002746;28;20033;-68
2021/11/30 11:52:27;;;;;;;1.20;0.57;;;2.10;95.20;;;;;;5003191;28;20480;-68
2021/11/30 11:55:12;;;;;;;0.55;0.50;;;2.10;94.90;;;;;;5003737;28;20121;-68
2021/11/30 11:57:40;;;;;;;0.70;0.70;;;2.10;94.90;;;;;;5003621;28;20068;-68
2021/11/30 12:00:24;;;;;;;1.02;0.80;;;2.10;95.00;;;;;;5002320;28;20126;-68
2021/11/30 12:02:53;;;;;;;0.43;0.43;;;2.10;95.20;;;;;;5002983;28;20039;-68
2021/11/30 12:05:43;;;;;;;0.60;0.60;;;2.10;94.90;;;;;;5002980;28;20026;-68
2021/11/30 12:08:19;;;;;;;0.50;0.50;;;2.10;95.10;;;;;;5001570;28;20032;-68
2021/11/30 12:10:45;;;;;;;0.82;0.70;;;2.20;95.40;;;;;;5002521;28;20104;-67
2021/11/30 12:13:12;;;;;;;0.70;0.60;;;2.10;95.30;;;;;;5002983;28;20097;-66
2021/11/30 12:16:05;;;;;;;1.02;0.55;;;2.20;95.30;;;;;;5006403;28;20033;-66
2021/11/30 12:18:42;;;;;;;1.65;0.60;;;2.30;95.00;;;;;;5005236;28;20216;-66
2021/11/30 12:21:14;;;;;;;0.73;0.70;;;2.30;94.80;;;;;;5005916;28;20036;-66
2021/11/30 12:23:40;;;;;;;1.23;0.90;;;2.30;94.70;;;;;;5006312;28;20275;-66
2021/11/30 12:26:41;;;;;;;1.27;0.75;;;2.30;94.90;;;;;;5006370;28;20344;-66
2021/11/30 12:29:29;;;;;;;1.70;0.60;;;2.40;95.00;;;;;;5006161;28;20045;-67
2021/11/30 12:31:56;;;;;;;0.60;0.60;;;2.40;94.70;;;;;;5006307;28;20022;-67
2021/11/30 12:34:36;;;;;;;0.70;0.60;;;2.40;94.70;;;;;;5006241;28;20022;-67
2021/11/30 12:37:05;;;;;;;1.63;0.70;;;2.30;94.80;;;;;;5004607;28;20049;-66
2021/11/30 12:40:11;;;;;;;0.50;0.50;;;2.40;94.70;;;;;;5006019;28;20033;-66
2021/11/30 12:42:40;;;;;;;1.15;0.50;;;2.30;94.70;;;;;;5005990;28;20104;-67
2021/11/30 12:45:52;;;;;;;0.57;0.50;;;2.30;94.80;;;;;;5005910;28;20034;-67
2021/11/30 12:48:32;;;;;;;0.50;0.50;;;2.30;94.90;;;;;;5006117;28;20316;-67
2021/11/30 12:51:30;;;;;;;1.00;0.80;;;2.40;95.10;;;;;;5005473;28;20034;-66
2021/11/30 12:53:58;;;;;;;1.08;0.70;;;2.30;95.20;;;;;;5004244;28;20042;-66
2021/11/30 12:56:43;;;;;;;2.33;1.33;;;2.40;94.90;;;;;;5004938;28;20263;-66
2021/11/30 12:59:11;;;;;;;2.33;0.80;;;2.60;94.90;;;;;;5005467;28;20044;-64
2021/11/30 13:01:37;;;;;;;1.45;0.73;;;2.60;94.90;;;;;;5005720;28;20035;-66
2021/11/30 13:04:33;;;;;;;1.40;0.85;;;2.90;94.50;;;;;;5005733;28;20053;-66
2021/11/30 13:07:12;;;;;;;0.82;0.50;;;2.80;94.20;;;;;;5005516;28;20232;-67
2021/11/30 13:09:49;;;;;;;1.45;0.90;;;2.70;94.40;;;;;;5005784;28;20026;-66
2021/11/30 13:12:20;;;;;;;0.73;0.65;;;2.90;94.60;;;;;;5004551;28;20026;-66
2021/11/30 13:14:47;;;;;;;0.68;0.60;;;2.90;94.20;;;;;;5005718;28;20034;-66
2021/11/30 13:17:13;;;;;;;2.05;0.80;;;2.90;94.50;;;;;;5005421;28;20030;-67
2021/11/30 13:19:42;;;;;;;0.60;0.60;;;2.90;94.50;;;;;;5005393;28;20087;-67